Time,TemperatureF,DewpointF,PressureIn,WindDirection,WindDirectionDegrees,WindSpeedMPH,WindSpeedGustMPH,Humidity,HourlyPrecipIn,Conditions,Clouds,dailyrainin,SoftwareType,DateUTC
2013-09-30 00:12:00,45.0,41.0,-100.00,WSW,251,0.0,1.0,87,0.00,,,0.01,,2013-09-30 06:12:00,
2013-09-30 00:21:00,44.0,40.0,-100.00,WSW,251,0.0,0.0,87,0.00,,,0.01,,2013-09-30 06:21:00,
2013-09-30 00:52:00,44.0,40.0,-100.00,WSW,251,0.0,1.0,86,0.00,,,0.01,,2013-09-30 06:52:00,
2013-09-30 01:12:00,44.0,40.0,-100.00,WSW,251,0.0,1.0,87,0.00,,,0.01,,2013-09-30 07:12:00,
2013-09-30 01:21:00,44.0,40.0,-100.00,WSW,251,0.0,1.0,86,0.00,,,0.01,,2013-09-30 07:21:00,
2013-09-30 01:53:00,48.0,39.0,-100.00,SSE,160,0.0,5.0,72,0.00,,,0.01,,2013-09-30 07:53:00,
2013-09-30 02:12:00,49.0,39.0,-100.00,South,185,0.0,1.0,69,0.00,,,0.01,,2013-09-30 08:12:00,
2013-09-30 02:22:00,49.0,39.0,-100.00,SW,222,1.0,5.0,67,0.00,,,0.01,,2013-09-30 08:22:00,
2013-09-30 02:42:00,51.0,38.0,-100.00,ESE,122,1.0,5.0,62,0.00,,,0.01,,2013-09-30 08:42:00,
2013-09-30 02:52:00,52.0,39.0,-100.00,West,270,4.0,14.0,60,0.00,,,0.01,,2013-09-30 08:52:00,
2013-09-30 03:11:00,53.0,39.0,-100.00,SSE,158,3.0,10.0,59,0.00,,,0.01,,2013-09-30 09:11:00,
2013-09-30 03:22:00,53.0,39.0,-100.00,South,189,2.0,11.0,58,0.00,,,0.01,,2013-09-30 09:22:00,
2013-09-30 03:53:00,53.0,40.0,-100.00,SSW,199,4.0,14.0,61,0.00,,,0.01,,2013-09-30 09:53:00,
2013-09-30 04:13:00,52.0,41.0,-100.00,SSE,162,3.0,17.0,65,0.00,,,0.01,,2013-09-30 10:13:00,
2013-09-30 04:22:00,51.0,41.0,-100.00,SW,230,2.0,10.0,69,0.00,,,0.01,,2013-09-30 10:22:00,
2013-09-30 04:53:00,51.0,42.0,-100.00,SW,217,1.0,7.0,70,0.00,,,0.01,,2013-09-30 10:53:00,
2013-09-30 05:12:00,50.0,42.0,-100.00,SW,221,0.0,9.0,73,0.00,,,0.01,,2013-09-30 11:12:00,
2013-09-30 05:22:00,49.0,42.0,-100.00,SSW,205,0.0,5.0,76,0.01,,,0.02,,2013-09-30 11:22:00,
2013-09-30 05:52:00,48.0,42.0,-100.00,SSW,197,0.0,4.0,80,0.01,,,0.02,,2013-09-30 11:52:00,
2013-09-30 06:12:00,48.0,43.0,-100.00,South,191,0.0,3.0,82,0.01,,,0.02,,2013-09-30 12:12:00,
2013-09-30 06:22:00,48.0,42.0,-100.00,South,191,2.0,7.0,81,0.00,,,0.02,,2013-09-30 12:22:00,
2013-09-30 06:52:00,47.0,43.0,-100.00,SSE,158,0.0,5.0,85,0.01,,,0.03,,2013-09-30 12:52:00,
2013-09-30 07:11:00,47.0,44.0,-100.00,South,183,0.0,4.0,88,0.01,,,0.03,,2013-09-30 13:11:00,
2013-09-30 07:22:00,47.0,44.0,-100.00,SSW,202,1.0,5.0,88,0.02,,,0.04,,2013-09-30 13:22:00,
2013-09-30 07:42:00,47.0,44.0,-100.00,SSE,150,1.0,3.0,89,0.03,,,0.05,,2013-09-30 13:42:00,
2013-09-30 07:52:00,47.0,43.0,-100.00,SSW,213,2.0,10.0,87,0.03,,,0.06,,2013-09-30 13:52:00,
2013-09-30 08:11:00,47.0,44.0,-100.00,South,172,2.0,9.0,88,0.05,,,0.08,,2013-09-30 14:11:00,
2013-09-30 08:22:00,47.0,43.0,-100.00,SSE,162,3.0,14.0,87,0.04,,,0.08,,2013-09-30 14:22:00,
2013-09-30 08:42:00,47.0,43.0,-100.00,SE,145,2.0,11.0,87,0.03,,,0.08,,2013-09-30 14:42:00,
2013-09-30 08:52:00,47.0,43.0,-100.00,South,176,2.0,9.0,86,0.02,,,0.08,,2013-09-30 14:52:00,
2013-09-30 09:11:00,48.0,43.0,-100.00,SSW,195,1.0,11.0,84,0.01,,,0.09,,2013-09-30 15:11:00,
2013-09-30 09:22:00,49.0,43.0,-100.00,SSE,147,1.0,9.0,80,0.01,,,0.09,,2013-09-30 15:22:00,
2013-09-30 09:45:00,50.0,43.0,-100.00,South,183,3.0,11.0,78,0.01,,,0.09,,2013-09-30 15:45:00,
2013-09-30 09:54:00,50.0,44.0,-100.00,SSE,166,3.0,19.0,79,0.01,,,0.09,,2013-09-30 15:54:00,
2013-09-30 10:14:00,49.0,43.0,-100.00,SSW,203,3.0,12.0,81,0.02,,,0.11,,2013-09-30 16:14:00,
2013-09-30 10:24:00,48.0,43.0,-100.00,SSE,150,3.0,14.0,83,0.03,,,0.12,,2013-09-30 16:24:00,
2013-09-30 10:44:00,49.0,45.0,-100.00,SE,132,2.0,11.0,85,0.03,,,0.12,,2013-09-30 16:44:00,
2013-09-30 10:53:00,50.0,45.0,-100.00,South,169,0.0,8.0,84,0.03,,,0.12,,2013-09-30 16:53:00,
2013-09-30 11:13:00,51.0,45.0,-100.00,SSE,165,2.0,7.0,80,0.01,,,0.12,,2013-09-30 17:13:00,
2013-09-30 11:22:00,51.0,43.0,-100.00,South,177,1.0,12.0,75,0.00,,,0.12,,2013-09-30 17:22:00,
2013-09-30 11:53:00,53.0,43.0,-100.00,SSW,195,2.0,7.0,69,0.00,,,0.12,,2013-09-30 17:53:00,
2013-09-30 12:12:00,54.0,43.0,-100.00,WSW,237,2.0,11.0,65,0.00,,,0.12,,2013-09-30 18:12:00,
2013-09-30 12:22:00,55.0,41.0,-100.00,South,185,4.0,11.0,60,0.00,,,0.12,,2013-09-30 18:22:00,
2013-09-30 12:53:00,59.0,40.0,-100.00,SSW,194,7.0,17.0,50,0.00,,,0.12,,2013-09-30 18:53:00,
2013-09-30 13:12:00,58.0,40.0,-100.00,WSW,245,6.0,17.0,51,0.00,,,0.12,,2013-09-30 19:12:00,
2013-09-30 13:22:00,58.0,42.0,-100.00,West,268,3.0,9.0,55,0.00,,,0.12,,2013-09-30 19:22:00,
2013-09-30 13:42:00,57.0,40.0,-100.00,WSW,242,2.0,8.0,53,0.00,,,0.12,,2013-09-30 19:42:00,
2013-09-30 13:53:00,57.0,40.0,-100.00,West,259,3.0,12.0,53,0.00,,,0.12,,2013-09-30 19:53:00,
2013-09-30 14:12:00,58.0,39.0,-100.00,West,272,2.0,11.0,50,0.00,,,0.12,,2013-09-30 20:12:00,
2013-09-30 14:23:00,60.0,40.0,-100.00,WNW,301,8.0,21.0,47,0.00,,,0.12,,2013-09-30 20:23:00,
2013-09-30 14:53:00,59.0,39.0,-100.00,West,273,4.0,25.0,47,0.01,,,0.13,,2013-09-30 20:53:00,
2013-09-30 15:11:00,60.0,39.0,-100.00,WSW,243,3.0,13.0,46,0.01,,,0.13,,2013-09-30 21:11:00,
2013-09-30 15:22:00,61.0,38.0,-100.00,West,260,5.0,19.0,43,0.01,,,0.13,,2013-09-30 21:22:00,
2013-09-30 15:54:00,56.0,44.0,-100.00,South,184,1.0,16.0,63,0.01,,,0.14,,2013-09-30 21:54:00,
2013-09-30 16:23:00,54.0,43.0,-100.00,SE,143,2.0,10.0,66,0.02,,,0.15,,2013-09-30 22:23:00,
2013-09-30 16:43:00,55.0,41.0,-100.00,WNW,298,3.0,21.0,58,0.02,,,0.15,,2013-09-30 22:43:00,
2013-09-30 16:54:00,56.0,41.0,-100.00,WNW,290,1.0,7.0,58,0.01,,,0.15,,2013-09-30 22:54:00,
2013-09-30 17:12:00,57.0,40.0,-100.00,WSW,257,4.0,13.0,53,0.00,,,0.15,,2013-09-30 23:12:00,
2013-09-30 17:22:00,58.0,38.0,-100.00,SW,222,4.0,12.0,47,0.00,,,0.15,,2013-09-30 23:22:00,
2013-09-30 17:42:00,58.0,38.0,-100.00,West,271,9.0,21.0,47,0.00,,,0.15,,2013-09-30 23:42:00,
2013-09-30 17:54:00,57.0,37.0,-100.00,SSW,199,11.0,28.0,47,0.00,,,0.15,,2013-09-30 23:54:00,
2013-09-30 18:12:00,56.0,38.0,-100.00,WSW,245,8.0,22.0,50,0.00,,,0.15,,2013-10-01 00:12:00,
2013-09-30 18:22:00,55.0,37.0,-100.00,WNW,302,9.0,27.0,50,0.00,,,0.15,,2013-10-01 00:22:00,
2013-09-30 18:43:00,54.0,37.0,-100.00,NNW,328,9.0,23.0,52,0.00,,,0.15,,2013-10-01 00:43:00,
2013-09-30 18:52:00,54.0,38.0,-100.00,WSW,241,5.0,31.0,54,0.00,,,0.15,,2013-10-01 00:52:00,
2013-09-30 19:12:00,53.0,37.0,-100.00,WSW,248,5.0,20.0,55,0.00,,,0.15,,2013-10-01 01:12:00,
2013-09-30 19:21:00,53.0,37.0,-100.00,NW,318,10.0,24.0,55,0.00,,,0.15,,2013-10-01 01:21:00,
2013-09-30 19:42:00,52.0,37.0,-100.00,WSW,249,7.0,26.0,57,0.00,,,0.15,,2013-10-01 01:42:00,
2013-09-30 19:52:00,52.0,36.0,-100.00,NW,305,4.0,22.0,54,0.00,,,0.15,,2013-10-01 01:52:00,
2013-09-30 20:12:00,51.0,35.0,-100.00,NW,316,7.0,17.0,54,0.00,,,0.15,,2013-10-01 02:12:00,
2013-09-30 20:22:00,51.0,36.0,-100.00,NW,310,6.0,19.0,56,0.00,,,0.15,,2013-10-01 02:22:00,
2013-09-30 20:42:00,51.0,35.0,-100.00,NNW,346,11.0,25.0,54,0.00,,,0.15,,2013-10-01 02:42:00,
2013-09-30 20:52:00,52.0,34.0,-100.00,WSW,254,9.0,31.0,51,0.00,,,0.15,,2013-10-01 02:52:00,
2013-09-30 21:22:00,52.0,34.0,-100.00,West,271,8.0,28.0,51,0.00,,,0.14,,2013-10-01 03:22:00,
2013-09-30 21:55:00,51.0,34.0,-100.00,West,279,3.0,19.0,52,0.00,,,0.14,,2013-10-01 03:55:00,
2013-09-30 22:14:00,51.0,32.0,-100.00,WNW,294,3.0,19.0,48,0.00,,,0.14,,2013-10-01 04:14:00,
2013-09-30 22:24:00,52.0,31.0,-100.00,West,278,5.0,25.0,44,0.00,,,0.14,,2013-10-01 04:24:00,